createdAt,value
2022-10-17T00:02:04.579Z,100992.70
2022-10-17T00:04:32.086Z,100987.58
2022-10-17T00:07:13.931Z,100985.13
2022-10-17T00:09:44.220Z,100985.77
2022-10-17T00:12:11.487Z,100984.94
2022-10-17T00:14:38.821Z,100985.21
2022-10-17T00:17:06.306Z,100980.90
2022-10-17T00:19:33.506Z,100984.64
2022-10-17T00:22:01.085Z,100993.13
2022-10-17T00:24:31.507Z,100989.33
2022-10-17T00:26:58.968Z,100987.58
2022-10-17T00:29:26.496Z,100994.54
2022-10-17T00:31:55.871Z,101000.88
2022-10-17T00:34:25.108Z,100996.38
2022-10-17T00:36:52.700Z,100999.15
2022-10-17T00:39:20.445Z,101006.55
2022-10-17T00:41:47.923Z,101000.89
2022-10-17T00:44:34.470Z,100988.09
2022-10-17T00:47:09.142Z,100987.65
2022-10-17T00:49:39.016Z,100991.45
2022-10-17T00:52:11.260Z,100986.47
2022-10-17T00:54:44.137Z,100986.64
2022-10-17T00:57:12.115Z,100993.90
2022-10-17T00:59:41.430Z,100996.66
2022-10-17T01:02:15.833Z,100998.98
2022-10-17T01:04:46.311Z,100996.30
2022-10-17T01:07:13.748Z,101003.96
2022-10-17T01:09:43.922Z,101004.02
2022-10-17T01:12:30.124Z,101008.89
2022-10-17T01:14:57.964Z,101005.98
2022-10-17T01:17:53.827Z,100999.63
2022-10-17T01:20:46.125Z,100994.69
2022-10-17T01:23:36.407Z,100992.16
2022-10-17T01:26:18.836Z,100995.73
2022-10-17T01:29:01.176Z,100995.42
2022-10-17T01:31:54.703Z,100995.88
2022-10-17T01:34:35.810Z,100993.03
2022-10-17T01:37:45.307Z,100992.48
2022-10-17T01:40:25.384Z,101002.92
2022-10-17T01:43:03.899Z,101005.60
2022-10-17T01:45:40.680Z,101003.59
2022-10-17T01:48:16.377Z,101005.30
2022-10-17T01:50:51.371Z,101008.88
2022-10-17T01:53:27.208Z,101015.64
2022-10-17T01:55:59.420Z,101012.79
2022-10-17T01:58:36.363Z,101021.65
2022-10-17T02:01:07.395Z,101024.46
2022-10-17T02:03:51.648Z,101033.40
2022-10-17T02:06:19.031Z,101046.23
2022-10-17T02:08:49.578Z,101042.23
2022-10-17T02:11:26.160Z,101039.05
2022-10-17T02:13:53.789Z,101041.15
2022-10-17T02:16:29.882Z,101036.45
2022-10-17T02:19:02.762Z,101027.83
2022-10-17T02:22:09.096Z,101023.60
2022-10-17T02:24:56.948Z,101030.76
2022-10-17T02:27:46.085Z,101036.48
2022-10-17T02:30:19.788Z,101031.98
2022-10-17T02:32:55.469Z,101031.98
2022-10-17T02:35:26.869Z,101039.30
2022-10-17T02:37:55.273Z,101049.22
2022-10-17T02:40:39.548Z,101055.11
2022-10-17T02:43:07.547Z,101058.48
2022-10-17T02:45:37.381Z,101061.67
2022-10-17T02:48:36.969Z,101061.09
2022-10-17T02:51:26.018Z,101059.83
2022-10-17T02:54:09.731Z,101066.33
2022-10-17T02:56:46.089Z,101054.52
2022-10-17T02:59:17.268Z,101049.48
2022-10-17T03:01:44.891Z,101043.48
2022-10-17T03:04:14.341Z,101040.48
2022-10-17T03:06:44.420Z,101056.86
2022-10-17T03:09:12.127Z,101077.02
2022-10-17T03:11:41.775Z,101073.02
2022-10-17T03:14:23.846Z,101078.73
2022-10-17T03:16:52.449Z,101086.33
2022-10-17T03:19:21.322Z,101093.52
2022-10-17T03:22:03.106Z,101087.41
2022-10-17T03:24:31.122Z,101084.60
2022-10-17T03:26:59.512Z,101085.34
2022-10-17T03:29:27.185Z,101087.16
2022-10-17T03:31:54.809Z,101083.09
2022-10-17T03:34:22.836Z,101082.67
2022-10-17T03:36:50.624Z,101097.20
2022-10-17T03:39:19.126Z,101105.96
2022-10-17T03:41:46.288Z,101103.36
2022-10-17T03:44:15.371Z,101106.05
2022-10-17T03:46:43.341Z,101096.86
2022-10-17T03:49:10.737Z,101096.54
2022-10-17T03:51:38.010Z,101100.77
2022-10-17T03:54:09.285Z,101101.55
2022-10-17T03:56:37.827Z,101104.80
2022-10-17T03:59:14.707Z,101107.05
2022-10-17T04:01:44.166Z,101107.34
2022-10-17T04:04:12.853Z,101114.06
2022-10-17T04:06:40.792Z,101110.24
2022-10-17T04:09:09.984Z,101108.55
2022-10-17T04:11:56.438Z,101110.95
2022-10-17T04:14:24.459Z,101125.95
2022-10-17T04:16:53.031Z,101135.20
2022-10-17T04:19:21.643Z,101134.73
2022-10-17T04:21:50.258Z,101142.00
2022-10-17T04:24:18.506Z,101140.16
2022-10-17T04:26:50.892Z,101136.83
2022-10-17T04:29:18.806Z,101138.62
2022-10-17T04:31:47.694Z,101133.16
2022-10-17T04:34:19.709Z,101126.54
2022-10-17T04:36:47.433Z,101125.80
2022-10-17T04:39:30.054Z,101125.48
2022-10-17T04:41:58.451Z,101124.05
2022-10-17T04:44:26.004Z,101122.55
2022-10-17T04:46:53.553Z,101120.77
2022-10-17T04:49:21.053Z,101125.69
2022-10-17T04:51:50.166Z,101124.38
2022-10-17T04:54:31.945Z,101123.27
2022-10-17T04:57:08.587Z,101129.10
2022-10-17T04:59:36.102Z,101136.04
2022-10-17T05:02:27.041Z,101138.38
2022-10-17T05:04:55.543Z,101137.13
2022-10-17T05:07:22.991Z,101139.60
2022-10-17T05:10:03.377Z,101138.94
2022-10-17T05:12:31.852Z,101136.30
2022-10-17T05:14:59.707Z,101138.13
2022-10-17T05:17:28.195Z,101134.14
2022-10-17T05:19:55.542Z,101135.49
2022-10-17T05:22:23.239Z,101139.78
2022-10-17T05:24:50.981Z,101139.92
2022-10-17T05:27:19.511Z,101144.75
2022-10-17T05:29:46.814Z,101146.81
2022-10-17T05:32:21.758Z,101145.39
2022-10-17T05:34:49.195Z,101148.65
2022-10-17T05:37:16.946Z,101156.14
2022-10-17T05:39:50.714Z,101165.46
2022-10-17T05:42:20.046Z,101171.80
2022-10-17T05:44:48.051Z,101169.25
2022-10-17T05:47:16.968Z,101170.86
2022-10-17T05:49:48.670Z,101166.33
2022-10-17T05:52:21.653Z,101170.32
2022-10-17T05:55:06.170Z,101181.62
2022-10-17T05:57:34.069Z,101187.16
2022-10-17T06:00:01.882Z,101183.63
2022-10-17T06:02:45.389Z,101185.30
2022-10-17T06:05:14.357Z,101190.59
2022-10-17T06:07:42.168Z,101196.68
2022-10-17T06:10:12.511Z,101196.20
2022-10-17T06:12:39.859Z,101197.66
2022-10-17T06:15:08.857Z,101197.52
2022-10-17T06:17:50.617Z,101207.13
2022-10-17T06:20:17.733Z,101214.46
2022-10-17T06:22:59.535Z,101221.95
2022-10-17T06:25:47.206Z,101227.08
2022-10-17T06:28:14.665Z,101224.98
2022-10-17T06:30:42.301Z,101228.02
2022-10-17T06:33:09.855Z,101237.30
2022-10-17T06:35:37.543Z,101238.13
2022-10-17T06:38:04.960Z,101237.64
2022-10-17T06:40:33.290Z,101231.80
2022-10-17T06:43:00.547Z,101230.19
2022-10-17T06:45:47.342Z,101222.23
2022-10-17T06:48:33.360Z,101226.17
2022-10-17T06:51:19.214Z,101233.48
2022-10-17T06:53:54.477Z,101240.54
2022-10-17T06:56:48.165Z,101232.57
2022-10-17T06:59:34.311Z,101227.02
2022-10-17T07:02:11.911Z,101225.63
2022-10-17T07:04:39.158Z,101226.66
2022-10-17T07:07:06.332Z,101220.24
2022-10-17T07:09:35.152Z,101222.42
2022-10-17T07:12:16.833Z,101224.98
2022-10-17T07:15:00.550Z,101229.23
2022-10-17T07:17:28.196Z,101230.80
2022-10-17T07:20:10.502Z,101239.79
2022-10-17T07:22:53.150Z,101239.02
2022-10-17T07:25:20.544Z,101245.15
2022-10-17T07:27:55.596Z,101249.92
2022-10-17T07:30:23.894Z,101249.31
2022-10-17T07:33:00.982Z,101257.23
2022-10-17T07:35:28.591Z,101260.98
2022-10-17T07:37:56.812Z,101260.98
2022-10-17T07:40:24.704Z,101259.06
2022-10-17T07:42:53.071Z,101261.15
2022-10-17T07:45:23.204Z,101263.43
2022-10-17T07:47:50.486Z,101262.53
2022-10-17T07:50:18.092Z,101263.50
2022-10-17T07:52:59.945Z,101265.54
2022-10-17T07:55:27.471Z,101264.72
2022-10-17T07:57:54.880Z,101259.80
2022-10-17T08:00:36.801Z,101259.45
2022-10-17T08:03:04.957Z,101256.38
2022-10-17T08:05:33.056Z,101257.18
2022-10-17T08:08:14.694Z,101253.29
2022-10-17T08:10:42.073Z,101250.48
2022-10-17T08:13:09.863Z,101245.25
2022-10-17T08:15:38.579Z,101241.61
2022-10-17T08:18:06.173Z,101243.24
2022-10-17T08:20:33.430Z,101246.29
2022-10-17T08:23:00.561Z,101249.05
2022-10-17T08:25:27.709Z,101245.04
2022-10-17T08:27:55.036Z,101240.83
2022-10-17T08:30:22.390Z,101239.27
2022-10-17T08:32:49.771Z,101239.64
2022-10-17T08:35:17.240Z,101242.62
2022-10-17T08:38:01.265Z,101242.23
2022-10-17T08:40:34.978Z,101240.35
2022-10-17T08:43:22.129Z,101241.80
2022-10-17T08:46:02.651Z,101239.73
2022-10-17T08:48:33.671Z,101239.37
2022-10-17T08:51:04.738Z,101234.26
2022-10-17T08:53:51.423Z,101233.96
2022-10-17T08:56:47.642Z,101236.44
2022-10-17T08:59:18.342Z,101235.39
2022-10-17T09:01:54.309Z,101233.52
2022-10-17T09:04:53.098Z,101230.41
2022-10-17T09:07:58.075Z,101233.53
2022-10-17T09:10:59.227Z,101241.10
2022-10-17T09:13:52.226Z,101240.16
2022-10-17T09:17:03.091Z,101237.75
2022-10-17T09:19:45.929Z,101231.32
2022-10-17T09:22:23.728Z,101224.21
2022-10-17T09:24:56.349Z,101226.37
2022-10-17T09:27:40.731Z,101227.64
2022-10-17T09:30:51.567Z,101226.63
2022-10-17T09:33:35.443Z,101228.06
2022-10-17T09:36:29.863Z,101225.44
2022-10-17T09:39:00.483Z,101219.40
2022-10-17T09:41:45.465Z,101219.22
2022-10-17T09:44:18.871Z,101224.34
2022-10-17T09:47:06.501Z,101221.10
2022-10-17T09:49:37.327Z,101219.95
2022-10-17T09:52:11.593Z,101223.24
2022-10-17T09:54:46.260Z,101222.13
2022-10-17T09:57:15.628Z,101219.80
2022-10-17T09:59:55.842Z,101214.22
2022-10-17T10:02:25.408Z,101211.14
2022-10-17T10:05:19.583Z,101208.65
2022-10-17T10:08:12.804Z,101209.19
2022-10-17T10:10:42.741Z,101209.48
2022-10-17T10:13:13.043Z,101211.97
2022-10-17T10:15:46.822Z,101207.23
2022-10-17T10:18:35.850Z,101204.91
2022-10-17T10:21:09.771Z,101210.89
2022-10-17T10:24:10.883Z,101210.52
2022-10-17T10:26:48.611Z,101210.45
2022-10-17T10:29:31.815Z,101210.35
2022-10-17T10:32:32.765Z,101209.90
2022-10-17T10:35:20.605Z,101208.59
2022-10-17T10:37:54.632Z,101203.88
2022-10-17T10:40:52.589Z,101195.52
2022-10-17T10:43:39.235Z,101191.13
2022-10-17T10:46:20.215Z,101187.05
2022-10-17T10:48:54.764Z,101182.84
2022-10-17T10:51:30.392Z,101183.04
2022-10-17T10:54:05.043Z,101173.02
2022-10-17T10:56:51.292Z,101177.23
2022-10-17T10:59:26.112Z,101176.74
2022-10-17T11:02:12.187Z,101172.27
2022-10-17T11:05:02.892Z,101172.21
2022-10-17T11:07:36.367Z,101175.68
2022-10-17T11:10:25.598Z,101174.60
2022-10-17T11:13:22.393Z,101171.10
2022-10-17T11:15:59.775Z,101172.65
2022-10-17T11:18:39.800Z,101170.64
2022-10-17T11:21:24.614Z,101169.08
2022-10-17T11:24:10.090Z,101169.52
2022-10-17T11:26:44.544Z,101167.23
2022-10-17T11:29:13.406Z,101160.56
2022-10-17T11:31:50.065Z,101160.44
2022-10-17T11:34:46.200Z,101161.98
2022-10-17T11:37:29.007Z,101156.30
2022-10-17T11:40:01.941Z,101157.59
2022-10-17T11:43:01.172Z,101159.06
2022-10-17T11:45:34.823Z,101152.77
2022-10-17T11:48:13.856Z,101145.86
2022-10-17T11:53:56.167Z,101140.27
2022-10-17T11:56:51.135Z,101137.34
2022-10-17T11:59:49.762Z,101144.05
2022-10-17T12:02:34.494Z,101137.45
2022-10-17T12:05:19.800Z,101135.09
2022-10-17T12:08:03.188Z,101130.98
2022-10-17T12:10:58.279Z,101135.23
2022-10-17T12:13:28.569Z,101132.84
2022-10-17T12:15:58.269Z,101128.77
2022-10-17T12:18:29.217Z,101127.11
2022-10-17T12:20:58.736Z,101126.19
2022-10-17T12:23:31.207Z,101122.53
2022-10-17T12:26:03.283Z,101123.40
2022-10-17T12:28:38.146Z,101118.62
2022-10-17T12:31:27.465Z,101116.58
2022-10-17T12:34:02.789Z,101113.83
2022-10-17T12:36:30.088Z,101112.39
2022-10-17T12:39:03.519Z,101113.14
2022-10-17T12:41:46.055Z,101108.32
2022-10-17T12:44:14.692Z,101106.98
2022-10-17T12:46:51.261Z,101108.59
2022-10-17T12:49:37.226Z,101109.84
2022-10-17T12:52:34.605Z,101102.81
2022-10-17T12:55:12.775Z,101099.66
2022-10-17T12:57:50.117Z,101097.17
2022-10-17T13:01:22.718Z,101099.05
2022-10-17T13:03:47.727Z,101108.20
2022-10-17T13:06:21.336Z,101109.05
2022-10-17T13:08:56.853Z,101099.27
2022-10-17T13:11:31.014Z,101096.27
2022-10-17T13:14:01.788Z,101093.55
2022-10-17T13:16:38.643Z,101091.21
2022-10-17T13:19:18.332Z,101099.35
2022-10-17T13:21:59.925Z,101104.48
2022-10-17T13:24:32.695Z,101101.27
2022-10-17T13:27:02.791Z,101102.89
2022-10-17T13:29:33.945Z,101098.36
2022-10-17T13:32:16.306Z,101104.29
2022-10-17T13:34:44.272Z,101098.23
2022-10-17T13:37:17.376Z,101095.41
2022-10-17T13:39:55.666Z,101094.80
2022-10-17T13:42:30.675Z,101091.52
2022-10-17T13:44:59.271Z,101087.60
2022-10-17T13:47:30.365Z,101090.21
2022-10-17T13:49:58.830Z,101089.77
2022-10-17T13:52:29.772Z,101087.45
2022-10-17T13:55:19.752Z,101087.80
2022-10-17T13:57:48.428Z,101083.28
2022-10-17T14:00:21.552Z,101080.96
2022-10-17T14:03:05.586Z,101082.59
2022-10-17T14:05:36.736Z,101080.49
2022-10-17T14:08:12.086Z,101082.06
2022-10-17T14:10:44.788Z,101075.38
2022-10-17T14:13:24.142Z,101071.47
2022-10-17T14:15:55.403Z,101071.69
2022-10-17T14:18:34.946Z,101073.52
2022-10-17T14:24:28.398Z,101072.27
2022-10-17T14:27:01.335Z,101069.35
2022-10-17T14:29:50.576Z,101062.95
2022-10-17T14:32:20.740Z,101061.48
2022-10-17T14:35:01.430Z,101066.04
2022-10-17T14:37:49.823Z,101068.55
2022-10-17T14:40:25.748Z,101064.05
2022-10-17T14:42:55.210Z,101061.89
2022-10-17T14:45:29.441Z,101055.57
2022-10-17T14:48:12.449Z,101051.66
2022-10-17T14:50:40.428Z,101047.30
2022-10-17T14:53:10.819Z,101044.08
2022-10-17T14:55:40.297Z,101040.79
2022-10-17T14:58:30.104Z,101043.12
2022-10-17T15:00:59.740Z,101043.93
2022-10-17T15:03:27.061Z,101045.94
2022-10-17T15:05:55.501Z,101042.90
2022-10-17T15:08:23.925Z,101040.38
2022-10-17T15:10:52.255Z,101039.71
2022-10-17T15:13:28.821Z,101039.09
2022-10-17T15:15:57.471Z,101042.55
2022-10-17T15:18:24.740Z,101045.86
2022-10-17T15:20:59.781Z,101042.27
2022-10-17T15:23:32.687Z,101036.64
2022-10-17T15:26:01.244Z,101036.55
2022-10-17T15:28:28.476Z,101034.70
2022-10-17T15:30:55.762Z,101034.77
2022-10-17T15:33:37.842Z,101032.23
2022-10-17T15:36:05.088Z,101031.62
2022-10-17T15:38:33.348Z,101034.59
2022-10-17T15:41:00.924Z,101034.27
2022-10-17T15:43:28.104Z,101034.16
2022-10-17T15:45:56.032Z,101031.55
2022-10-17T15:48:29.060Z,101030.95
2022-10-17T15:50:57.152Z,101030.23
2022-10-17T15:53:24.346Z,101028.88
2022-10-17T15:55:51.894Z,101024.70
2022-10-17T15:58:19.613Z,101032.54
2022-10-17T16:00:47.909Z,101033.09
2022-10-17T16:03:29.935Z,101035.41
2022-10-17T16:06:14.149Z,101032.90
2022-10-17T16:08:41.756Z,101032.54
2022-10-17T16:11:40.204Z,101029.77
2022-10-17T16:14:11.593Z,101033.11
2022-10-17T16:16:53.207Z,101037.27
2022-10-17T16:19:35.294Z,101040.00
2022-10-17T16:22:04.639Z,101039.95
2022-10-17T16:24:46.508Z,101043.86
2022-10-17T16:27:13.868Z,101045.98
2022-10-17T16:29:41.268Z,101043.86
2022-10-17T16:32:09.237Z,101039.30
2022-10-17T16:34:36.599Z,101042.19
2022-10-17T16:37:03.973Z,101041.31
2022-10-17T16:39:51.662Z,101040.92
2022-10-17T16:42:20.351Z,101039.58
2022-10-17T16:44:49.611Z,101044.11
2022-10-17T16:47:18.658Z,101043.27
2022-10-17T16:49:46.037Z,101041.59
2022-10-17T16:52:14.237Z,101040.13
2022-10-17T16:54:42.157Z,101041.61
2022-10-17T16:57:09.532Z,101036.91
2022-10-17T16:59:36.940Z,101038.50
2022-10-17T17:02:04.746Z,101038.75
2022-10-17T17:04:31.880Z,101031.65
2022-10-17T17:06:59.334Z,101025.96
2022-10-17T17:09:26.692Z,101026.10
2022-10-17T17:11:53.888Z,101017.91
2022-10-17T17:14:24.915Z,101020.09
2022-10-17T17:16:55.227Z,101024.24
2022-10-17T17:19:22.724Z,101021.75
2022-10-17T17:21:51.302Z,101018.76
2022-10-17T17:24:21.358Z,101017.46
2022-10-17T17:26:54.690Z,101016.23
2022-10-17T17:29:23.294Z,101017.14
2022-10-17T17:31:50.941Z,101015.52
2022-10-17T17:34:18.631Z,101012.20
2022-10-17T17:36:45.983Z,101011.23
2022-10-17T17:39:14.893Z,101016.48
2022-10-17T17:41:45.131Z,101017.11
2022-10-17T17:44:16.455Z,101019.18
2022-10-17T17:46:44.850Z,101013.96
2022-10-17T17:49:12.300Z,101013.58
2022-10-17T17:51:54.035Z,101008.70
2022-10-17T17:54:38.560Z,100999.70
2022-10-17T17:57:08.453Z,101000.00
2022-10-17T17:59:50.084Z,100999.55
2022-10-17T18:02:17.495Z,100996.95
2022-10-17T18:04:59.326Z,101000.48
2022-10-17T18:07:27.010Z,100997.32
2022-10-17T18:09:55.685Z,100999.27
2022-10-17T18:12:23.180Z,100999.02
2022-10-17T18:14:50.646Z,101000.91
2022-10-17T18:17:17.931Z,100998.19
2022-10-17T18:19:45.280Z,100990.77
2022-10-17T18:22:12.625Z,100987.73
2022-10-17T18:24:54.646Z,100985.23
2022-10-17T18:27:22.188Z,100983.60
2022-10-17T18:29:50.790Z,100981.08
2022-10-17T18:32:18.484Z,100976.89
2022-10-17T18:34:46.237Z,100979.27
2022-10-17T18:37:13.530Z,100982.59
2022-10-17T18:39:41.243Z,100977.59
2022-10-17T18:42:08.601Z,100974.90
2022-10-17T18:44:35.983Z,100978.01
2022-10-17T18:47:07.447Z,100976.33
2022-10-17T18:49:37.343Z,100974.31
2022-10-17T18:52:06.205Z,100972.33
2022-10-17T18:54:34.345Z,100974.96
2022-10-17T18:57:01.775Z,100971.09
2022-10-17T18:59:34.189Z,100970.87
2022-10-17T19:02:24.093Z,100968.25
2022-10-17T19:05:31.652Z,100966.82
2022-10-17T19:08:49.984Z,100967.83
2022-10-17T19:15:21.333Z,100962.95
2022-10-17T19:18:21.190Z,100960.88
2022-10-17T19:21:22.088Z,100963.20
2022-10-17T19:24:45.459Z,100960.99
2022-10-17T19:27:38.013Z,100959.39
2022-10-17T19:30:06.191Z,100956.55
2022-10-17T19:32:33.765Z,100950.80
2022-10-17T19:35:01.494Z,100943.89
2022-10-17T19:37:30.327Z,100940.58
2022-10-17T19:40:13.005Z,100941.03
2022-10-17T19:42:40.198Z,100943.06
2022-10-17T19:45:08.529Z,100941.52
2022-10-17T19:47:36.256Z,100941.20
2022-10-17T19:52:31.732Z,100937.89
2022-10-17T19:54:59.593Z,100937.92
2022-10-17T19:57:26.969Z,100937.52
2022-10-17T19:59:56.001Z,100934.17
2022-10-17T20:02:23.442Z,100933.61
2022-10-17T20:04:54.769Z,100929.27
2022-10-17T20:07:39.259Z,100932.02
2022-10-17T20:10:07.468Z,100931.45
2022-10-17T20:12:34.522Z,100930.89
2022-10-17T20:15:02.234Z,100933.17
2022-10-17T20:17:29.506Z,100931.92
2022-10-17T20:19:56.890Z,100932.52
2022-10-17T20:22:24.664Z,100934.71
2022-10-17T20:24:51.933Z,100932.00
2022-10-17T20:27:19.068Z,100924.88
2022-10-17T20:29:46.503Z,100932.08
2022-10-17T20:32:13.996Z,100929.45
2022-10-17T20:34:41.320Z,100927.50
2022-10-17T20:37:08.764Z,100931.89
2022-10-17T20:39:35.940Z,100944.36
2022-10-17T20:42:17.586Z,100946.83
2022-10-17T20:47:26.475Z,100944.17
2022-10-17T20:50:14.292Z,100945.70
2022-10-17T20:52:41.636Z,100946.80
2022-10-17T20:55:09.209Z,100944.98
2022-10-17T20:57:36.826Z,100940.08
2022-10-17T21:00:04.976Z,100940.77
2022-10-17T21:02:32.159Z,100939.10
2022-10-17T21:04:59.390Z,100938.54
2022-10-17T21:07:26.791Z,100936.52
2022-10-17T21:09:54.250Z,100939.05
2022-10-17T21:12:31.161Z,100939.09
2022-10-17T21:15:09.697Z,100943.33
2022-10-17T21:17:37.185Z,100946.14
2022-10-17T21:20:05.154Z,100946.46
2022-10-17T21:22:35.622Z,100947.60
2022-10-17T21:25:03.113Z,100946.64
2022-10-17T21:27:30.535Z,100947.48
2022-10-17T21:29:57.762Z,100942.63
2022-10-17T21:32:39.413Z,100939.45
2022-10-17T21:35:12.463Z,100939.57
2022-10-17T21:37:42.660Z,100938.80
2022-10-17T21:40:10.839Z,100937.45
2022-10-17T21:42:38.178Z,100940.44
2022-10-17T21:45:25.850Z,100935.02
2022-10-17T21:48:13.716Z,100933.82
2022-10-17T21:50:41.337Z,100938.24
2022-10-17T21:53:08.725Z,100938.52
2022-10-17T21:55:37.343Z,100934.17
2022-10-17T21:58:05.158Z,100931.85
2022-10-17T22:00:32.461Z,100937.48
2022-10-17T22:03:00.657Z,100935.13
2022-10-17T22:05:29.993Z,100932.78
2022-10-17T22:07:57.262Z,100933.09
2022-10-17T22:10:24.475Z,100933.81
2022-10-17T22:12:51.772Z,100930.55
2022-10-17T22:15:18.808Z,100930.36
2022-10-17T22:17:46.331Z,100929.58
2022-10-17T22:20:14.001Z,100931.55
2022-10-17T22:22:41.676Z,100934.50
2022-10-17T22:25:09.411Z,100935.38
2022-10-17T22:27:36.687Z,100935.66
2022-10-17T22:30:05.391Z,100934.23
2022-10-17T22:32:32.681Z,100930.64
2022-10-17T22:35:00.039Z,100930.39
2022-10-17T22:37:27.625Z,100923.98
2022-10-17T22:39:55.229Z,100922.20
2022-10-17T22:44:49.973Z,100916.75
2022-10-17T22:47:32.036Z,100918.86
2022-10-17T22:49:59.564Z,100911.50
2022-10-17T22:52:27.109Z,100909.16
2022-10-17T22:54:54.656Z,100907.70
2022-10-17T22:57:36.508Z,100902.95
2022-10-17T23:00:18.489Z,100897.93
2022-10-17T23:02:45.689Z,100900.48
2022-10-17T23:05:13.266Z,100901.96
2022-10-17T23:07:40.694Z,100897.39
2022-10-17T23:10:08.752Z,100900.10
2022-10-17T23:12:50.445Z,100895.55
2022-10-17T23:15:17.856Z,100894.40
2022-10-17T23:18:00.907Z,100898.91
2022-10-17T23:20:42.690Z,100900.45
2022-10-17T23:23:10.198Z,100894.91
2022-10-17T23:25:52.048Z,100899.09
2022-10-17T23:28:19.933Z,100895.79
2022-10-17T23:30:47.800Z,100897.32
2022-10-17T23:33:15.263Z,100895.65
2022-10-17T23:35:42.966Z,100892.58
2022-10-17T23:38:10.554Z,100885.66
2022-10-17T23:40:38.099Z,100891.02
2022-10-17T23:43:05.496Z,100891.11
2022-10-17T23:45:35.976Z,100892.48
2022-10-17T23:48:05.074Z,100888.10
2022-10-17T23:50:32.589Z,100884.62
2022-10-17T23:52:59.901Z,100880.67
2022-10-17T23:55:27.504Z,100877.67
2022-10-17T23:57:55.024Z,100875.73
